createdAt,value
2019-03-16T00:00:31.867Z,6.17
2019-03-16T00:03:35.665Z,5.50
2019-03-16T00:06:39.505Z,5.23
2019-03-16T00:09:43.298Z,5.70
2019-03-16T00:12:47.194Z,5.80
2019-03-16T00:15:51.034Z,5.77
2019-03-16T00:18:54.971Z,4.73
2019-03-16T00:21:58.813Z,6.07
2019-03-16T00:25:02.656Z,5.87
2019-03-16T00:28:06.560Z,5.00
2019-03-16T00:31:10.468Z,4.93
2019-03-16T00:34:14.259Z,5.40
2019-03-16T00:37:18.094Z,4.43
2019-03-16T00:40:22.129Z,4.87
2019-03-16T00:43:25.899Z,5.27
2019-03-16T00:46:29.753Z,5.23
2019-03-16T00:49:33.593Z,5.00
2019-03-16T00:52:37.424Z,5.27
2019-03-16T00:55:41.226Z,5.23
2019-03-16T00:58:45.088Z,5.33
2019-03-16T01:01:48.881Z,5.13
2019-03-16T01:04:52.730Z,5.73
2019-03-16T01:07:56.568Z,5.67
2019-03-16T01:11:00.460Z,6.40
2019-03-16T01:14:04.551Z,6.07
2019-03-16T01:17:08.351Z,5.53
2019-03-16T01:20:12.426Z,5.43
2019-03-16T01:23:17.799Z,4.60
2019-03-16T01:26:21.989Z,4.20
2019-03-16T01:29:25.815Z,4.10
2019-03-16T01:32:39.963Z,1.80
2019-03-16T01:35:35.237Z,2.83
2019-03-16T01:38:39.154Z,2.87
2019-03-16T01:41:42.986Z,3.17
2019-03-16T01:44:46.943Z,2.90
2019-03-16T01:47:50.791Z,3.00
2019-03-16T01:50:54.615Z,3.93
2019-03-16T01:53:58.431Z,4.10
2019-03-16T01:57:02.259Z,4.07
2019-03-16T02:00:06.570Z,3.73
2019-03-16T02:03:10.505Z,4.90
2019-03-16T02:06:14.394Z,4.37
2019-03-16T02:09:18.262Z,6.53
2019-03-16T02:12:22.095Z,6.03
2019-03-16T02:15:26.009Z,6.27
2019-03-16T02:18:29.835Z,5.07
2019-03-16T02:21:34.023Z,5.50
2019-03-16T02:24:37.832Z,6.13
2019-03-16T02:27:41.729Z,5.13
2019-03-16T02:30:45.567Z,6.67
2019-03-16T02:33:49.391Z,5.03
2019-03-16T02:36:54.000Z,4.97
2019-03-16T02:39:57.822Z,4.83
2019-03-16T02:43:01.724Z,4.87
2019-03-16T02:46:05.616Z,4.10
2019-03-16T02:49:09.497Z,4.10
2019-03-16T02:52:13.364Z,4.20
2019-03-16T02:55:17.177Z,3.73
2019-03-16T02:58:21.025Z,3.30
2019-03-16T03:01:24.938Z,4.07
2019-03-16T03:04:28.890Z,3.83
2019-03-16T03:07:32.741Z,3.73
2019-03-16T03:10:36.588Z,4.13
2019-03-16T03:13:40.424Z,3.47
2019-03-16T03:16:44.361Z,3.47
2019-03-16T03:19:48.158Z,4.60
2019-03-16T03:22:52.058Z,4.53
2019-03-16T03:25:55.859Z,5.13
2019-03-16T03:28:59.728Z,3.83
2019-03-16T03:32:03.525Z,4.37
2019-03-16T03:35:07.601Z,5.70
2019-03-16T03:38:11.521Z,5.30
2019-03-16T03:41:15.370Z,4.03
2019-03-16T03:44:19.317Z,4.87
2019-03-16T03:47:23.138Z,4.80
2019-03-16T03:50:26.962Z,5.87
2019-03-16T03:53:30.800Z,5.60
2019-03-16T03:56:34.710Z,5.03
2019-03-16T03:59:38.680Z,5.13
2019-03-16T04:02:42.675Z,5.83
2019-03-16T04:05:46.472Z,5.40
2019-03-16T04:08:50.467Z,5.07
2019-03-16T04:11:54.289Z,5.13
2019-03-16T04:14:58.124Z,5.53
2019-03-16T04:18:02.050Z,5.70
2019-03-16T04:21:06.008Z,5.20
2019-03-16T04:24:09.845Z,7.13
2019-03-16T04:27:16.413Z,4.67
2019-03-16T04:30:19.214Z,5.37
2019-03-16T04:33:23.075Z,6.30
2019-03-16T04:36:26.931Z,6.03
2019-03-16T04:39:30.851Z,5.57
2019-03-16T04:42:34.660Z,6.63
2019-03-16T04:45:38.495Z,6.90
2019-03-16T04:48:42.380Z,5.70
2019-03-16T04:51:46.201Z,6.23
2019-03-16T04:54:50.023Z,6.60
2019-03-16T04:57:53.835Z,6.20
2019-03-16T05:00:57.681Z,5.13
2019-03-16T05:04:01.513Z,6.70
2019-03-16T05:07:05.427Z,6.77
2019-03-16T05:10:09.451Z,6.00
2019-03-16T05:13:13.262Z,6.13
2019-03-16T05:16:17.071Z,6.43
2019-03-16T05:19:20.876Z,5.87
2019-03-16T05:22:24.672Z,6.87
2019-03-16T05:25:28.474Z,6.17
2019-03-16T05:28:32.304Z,17.40
2019-03-16T05:31:36.132Z,30.03
2019-03-16T05:34:39.958Z,24.43
2019-03-16T05:37:43.870Z,24.60
2019-03-16T05:40:47.674Z,26.60
2019-03-16T05:43:51.459Z,8.37
2019-03-16T05:46:55.332Z,24.93
2019-03-16T05:49:59.182Z,17.63
2019-03-16T05:53:03.002Z,9.10
2019-03-16T05:56:06.987Z,12.00
2019-03-16T05:59:10.810Z,16.00
2019-03-16T06:02:14.643Z,6.80
2019-03-16T06:05:18.447Z,22.73
2019-03-16T06:08:22.258Z,17.37
2019-03-16T06:11:26.166Z,26.30
2019-03-16T06:14:30.013Z,18.77
2019-03-16T06:17:33.898Z,8.23
2019-03-16T06:20:37.694Z,12.17
2019-03-16T06:23:41.497Z,19.70
2019-03-16T06:26:45.319Z,10.53
2019-03-16T06:29:49.244Z,17.53
2019-03-16T06:32:53.134Z,35.40
2019-03-16T06:35:56.938Z,15.70
2019-03-16T06:39:00.751Z,13.70
2019-03-16T06:42:04.621Z,13.60
2019-03-16T06:45:08.703Z,12.57
2019-03-16T06:48:12.549Z,10.30
2019-03-16T06:51:16.349Z,8.90
2019-03-16T06:54:20.172Z,10.37
2019-03-16T06:57:24.063Z,8.00
2019-03-16T07:00:27.874Z,19.73
2019-03-16T07:03:31.669Z,14.63
2019-03-16T07:06:35.477Z,6.87
2019-03-16T07:09:39.294Z,12.80
2019-03-16T07:12:43.109Z,13.10
2019-03-16T07:15:46.929Z,10.90
2019-03-16T07:18:58.711Z,13.53
2019-03-16T07:21:56.348Z,7.30
2019-03-16T07:25:00.460Z,7.97
2019-03-16T07:28:04.431Z,9.10
2019-03-16T07:31:08.248Z,11.93
2019-03-16T07:34:12.038Z,7.87
2019-03-16T07:37:15.860Z,11.57
2019-03-16T07:40:19.717Z,7.50
2019-03-16T07:43:23.532Z,10.97
2019-03-16T07:46:27.369Z,14.37
2019-03-16T07:49:31.164Z,10.37
2019-03-16T07:52:34.969Z,15.37
2019-03-16T07:55:42.016Z,13.17
2019-03-16T07:58:44.318Z,15.97
2019-03-16T08:01:48.195Z,11.57
2019-03-16T08:04:51.996Z,6.07
2019-03-16T08:07:55.796Z,6.50
2019-03-16T08:10:59.599Z,8.23
2019-03-16T08:14:03.395Z,5.73
2019-03-16T08:17:07.244Z,5.83
2019-03-16T08:20:11.311Z,5.60
2019-03-16T08:23:15.184Z,4.40
2019-03-16T08:26:18.984Z,4.40
2019-03-16T08:29:22.796Z,4.63
2019-03-16T08:32:26.616Z,4.97
2019-03-16T08:35:30.423Z,5.13
2019-03-16T08:38:34.239Z,4.67
2019-03-16T08:41:45.218Z,4.80
2019-03-16T08:44:49.010Z,4.17
2019-03-16T08:47:52.851Z,4.43
2019-03-16T08:50:56.681Z,4.77
2019-03-16T08:54:00.488Z,4.43
2019-03-16T08:57:04.375Z,5.73
2019-03-16T09:00:08.868Z,10.07
2019-03-16T09:03:12.676Z,7.77
2019-03-16T09:06:16.529Z,4.60
2019-03-16T09:09:20.478Z,3.97
2019-03-16T09:12:24.317Z,3.97
2019-03-16T09:15:30.574Z,4.90
2019-03-16T09:18:34.925Z,4.43
2019-03-16T09:21:38.821Z,4.47
2019-03-16T09:24:42.648Z,4.70
2019-03-16T09:27:51.286Z,5.03
2019-03-16T09:30:56.632Z,3.93
2019-03-16T09:34:00.715Z,4.70
2019-03-16T09:37:05.402Z,4.47
2019-03-16T09:40:09.418Z,4.07
2019-03-16T09:43:13.297Z,6.00
2019-03-16T09:46:17.253Z,4.63
2019-03-16T09:49:21.110Z,4.60
2019-03-16T09:52:25.069Z,3.57
2019-03-16T09:55:29.243Z,3.90
2019-03-16T09:58:33.334Z,4.20
2019-03-16T10:01:37.179Z,3.80
2019-03-16T10:04:43.274Z,4.20
2019-03-16T10:07:47.259Z,4.10
2019-03-16T10:10:51.371Z,3.53
2019-03-16T10:13:55.273Z,2.73
2019-03-16T10:16:59.221Z,3.70
2019-03-16T10:20:03.038Z,3.30
2019-03-16T10:23:06.956Z,3.60
2019-03-16T10:26:10.941Z,3.90
2019-03-16T10:29:14.830Z,3.00
2019-03-16T10:32:19.131Z,2.47
2019-03-16T10:35:23.029Z,2.90
2019-03-16T10:38:26.865Z,3.00
2019-03-16T10:41:30.725Z,2.77
2019-03-16T10:44:34.566Z,2.23
2019-03-16T10:47:38.598Z,1.23
2019-03-16T10:50:42.451Z,2.00
2019-03-16T10:53:46.419Z,1.67
2019-03-16T10:56:50.463Z,1.50
2019-03-16T10:59:54.361Z,1.97
2019-03-16T11:02:58.157Z,1.70
2019-03-16T11:06:02.047Z,1.83
2019-03-16T11:09:07.243Z,2.10
2019-03-16T11:12:11.180Z,1.80
2019-03-16T11:15:15.228Z,1.90
2019-03-16T11:18:19.017Z,1.90
2019-03-16T11:21:22.820Z,2.63
2019-03-16T11:24:26.695Z,2.67
2019-03-16T11:27:33.518Z,2.53
2019-03-16T11:30:45.577Z,2.90
2019-03-16T11:33:49.376Z,2.43
2019-03-16T11:36:53.251Z,1.57
2019-03-16T11:39:57.137Z,1.40
2019-03-16T11:43:09.404Z,1.70
2019-03-16T11:46:18.076Z,1.40
2019-03-16T11:49:27.936Z,1.77
2019-03-16T11:52:38.938Z,1.57
2019-03-16T11:55:48.068Z,1.53
2019-03-16T11:58:51.922Z,1.63
2019-03-16T12:02:04.874Z,1.20
2019-03-16T12:05:01.624Z,1.30
2019-03-16T12:08:05.524Z,1.43
2019-03-16T12:11:12.455Z,1.20
2019-03-16T12:14:16.272Z,1.10
2019-03-16T12:17:20.704Z,2.03
2019-03-16T12:20:30.187Z,2.97
2019-03-16T12:23:35.145Z,2.93
2019-03-16T12:26:40.585Z,2.63
2019-03-16T12:29:47.784Z,2.47
2019-03-16T12:32:56.989Z,2.83
2019-03-16T12:36:13.490Z,1.50
2019-03-16T12:39:47.346Z,1.77
2019-03-16T12:50:06.159Z,2.00
2019-03-16T13:07:02.686Z,1.83
2019-03-16T13:22:31.484Z,1.27
2019-03-16T13:25:35.691Z,1.47
2019-03-16T13:28:40.887Z,1.00
2019-03-16T13:31:50.818Z,1.20
2019-03-16T13:34:54.822Z,1.40
2019-03-16T13:37:58.800Z,1.00
2019-03-16T13:41:03.114Z,1.27
2019-03-16T13:44:07.496Z,1.20
2019-03-16T13:47:11.605Z,0.80
2019-03-16T13:50:18.093Z,1.20
2019-03-16T13:53:23.533Z,0.90
2019-03-16T13:56:30.586Z,1.10
2019-03-16T13:59:47.244Z,0.90
2019-03-16T14:02:56.235Z,0.70
2019-03-16T14:06:04.041Z,0.87
2019-03-16T14:09:20.228Z,0.80
2019-03-16T14:12:30.554Z,1.03
2019-03-16T14:15:38.058Z,1.33
2019-03-16T14:19:59.365Z,1.17
2019-03-16T14:30:41.350Z,1.57
2019-03-16T14:33:59.767Z,0.80
2019-03-16T14:37:28.545Z,0.90
2019-03-16T14:40:36.295Z,0.90
2019-03-16T14:44:05.870Z,1.10
2019-03-16T14:47:50.568Z,0.70
2019-03-16T14:50:57.839Z,1.30
2019-03-16T14:55:01.072Z,1.37
2019-03-16T14:58:31.600Z,1.17
2019-03-16T15:01:44.103Z,0.90
2019-03-16T15:09:41.022Z,2.90
2019-03-16T15:12:59.768Z,1.70
2019-03-16T15:16:50.239Z,1.23
2019-03-16T15:31:22.697Z,2.07
2019-03-16T15:34:50.624Z,1.67
2019-03-16T15:41:51.982Z,1.90
2019-03-16T15:53:40.856Z,1.77
2019-03-16T15:57:36.672Z,2.03
2019-03-16T16:04:59.553Z,2.37
2019-03-16T16:08:33.780Z,2.60
2019-03-16T16:12:22.959Z,2.13
2019-03-16T16:20:19.657Z,2.90
2019-03-16T16:28:01.732Z,5.73
2019-03-16T16:31:57.359Z,4.13
2019-03-16T16:35:42.924Z,3.93
2019-03-16T16:38:51.502Z,4.57
2019-03-16T16:46:00.506Z,3.37
2019-03-16T16:46:26.527Z,4.57
2019-03-16T16:50:53.852Z,3.47
2019-03-16T16:54:40.344Z,3.13
2019-03-16T17:04:33.937Z,3.97
2019-03-16T17:07:52.739Z,5.77
2019-03-16T17:16:21.731Z,4.20
2019-03-16T17:29:00.025Z,5.47
2019-03-16T17:45:52.873Z,9.70
2019-03-16T18:12:28.561Z,6.60
2019-03-16T20:34:18.515Z,4.80
2019-03-16T20:46:29.690Z,4.97
2019-03-16T21:03:16.024Z,5.37
2019-03-16T21:10:34.569Z,5.23
2019-03-16T21:13:38.412Z,4.70
2019-03-16T21:16:42.584Z,6.00
2019-03-16T21:19:46.478Z,4.90
2019-03-16T21:23:00.672Z,5.87
2019-03-16T21:26:19.209Z,6.00
2019-03-16T21:29:26.242Z,5.93
2019-03-16T21:32:49.658Z,4.67
2019-03-16T21:36:20.997Z,4.80
2019-03-16T21:39:32.568Z,4.03
2019-03-16T21:46:57.681Z,4.07
2019-03-16T21:50:33.882Z,4.37
2019-03-16T21:53:50.177Z,5.07
2019-03-16T21:56:58.555Z,3.70
2019-03-16T22:00:22.779Z,3.93
2019-03-16T22:03:57.415Z,4.03
2019-03-16T22:14:38.701Z,4.67
2019-03-16T22:17:43.217Z,4.60
2019-03-16T22:34:57.541Z,3.63
2019-03-16T22:39:00.657Z,4.33
2019-03-16T22:42:30.944Z,3.87
2019-03-16T22:46:04.001Z,2.20
2019-03-16T22:49:27.201Z,4.00
2019-03-16T22:52:31.891Z,3.30
2019-03-16T22:55:50.201Z,4.20
2019-03-16T22:59:03.444Z,3.77
2019-03-16T23:02:08.793Z,3.50
2019-03-16T23:05:15.684Z,4.23
2019-03-16T23:08:22.370Z,3.40
2019-03-16T23:11:30.756Z,4.13
2019-03-16T23:14:35.169Z,4.20
2019-03-16T23:17:40.372Z,3.67
2019-03-16T23:20:55.658Z,3.77
2019-03-16T23:24:00.055Z,3.60
2019-03-16T23:27:05.151Z,3.13
2019-03-16T23:30:15.145Z,4.23
2019-03-16T23:33:21.325Z,3.47
2019-03-16T23:36:25.445Z,3.33
2019-03-16T23:39:39.980Z,4.07
2019-03-16T23:42:46.707Z,3.43
2019-03-16T23:45:53.157Z,3.83
2019-03-16T23:48:57.702Z,3.80
2019-03-16T23:52:04.665Z,4.00
2019-03-16T23:55:14.290Z,4.60
2019-03-16T23:58:19.667Z,3.30
